createdAt,value
2023-01-23T00:00:04.755Z,85.43
2023-01-23T00:03:01.571Z,85.24
2023-01-23T00:05:59.094Z,85.27
2023-01-23T00:08:48.582Z,85.28
2023-01-23T00:11:37.885Z,85.19
2023-01-23T00:14:28.548Z,85.39
2023-01-23T00:17:17.987Z,85.45
2023-01-23T00:20:08.683Z,85.20
2023-01-23T00:22:57.887Z,85.45
2023-01-23T00:25:47.083Z,85.53
2023-01-23T00:28:36.811Z,85.60
2023-01-23T00:31:31.629Z,85.24
2023-01-23T00:34:21.100Z,85.45
2023-01-23T00:37:10.724Z,85.15
2023-01-23T00:40:00.051Z,85.63
2023-01-23T00:42:49.326Z,84.98
2023-01-23T00:45:39.548Z,84.98
2023-01-23T00:48:30.220Z,84.89
2023-01-23T00:51:20.102Z,84.53
2023-01-23T00:54:09.310Z,84.27
2023-01-23T00:56:58.667Z,84.38
2023-01-23T00:59:47.894Z,84.21
2023-01-23T01:02:37.220Z,83.55
2023-01-23T01:05:28.759Z,83.80
2023-01-23T01:08:18.248Z,84.02
2023-01-23T01:11:08.248Z,83.85
2023-01-23T01:13:58.086Z,83.73
2023-01-23T01:16:47.372Z,83.45
2023-01-23T01:19:36.749Z,83.61
2023-01-23T01:22:27.579Z,83.82
2023-01-23T01:25:17.933Z,84.18
2023-01-23T01:28:09.384Z,84.23
2023-01-23T01:30:59.413Z,84.08
2023-01-23T01:33:50.626Z,83.86
2023-01-23T01:36:41.285Z,83.70
2023-01-23T01:39:31.919Z,83.97
2023-01-23T01:42:21.187Z,84.07
2023-01-23T01:46:05.135Z,84.11
2023-01-23T01:49:07.397Z,84.34
2023-01-23T01:52:00.768Z,84.30
2023-01-23T01:54:55.389Z,84.38
2023-01-23T01:57:48.983Z,84.14
2023-01-23T02:00:38.378Z,84.92
2023-01-23T02:03:28.239Z,84.61
2023-01-23T02:06:17.766Z,84.49
2023-01-23T02:09:17.492Z,84.42
2023-01-23T02:12:09.961Z,84.95
2023-01-23T02:14:59.645Z,84.35
2023-01-23T02:17:51.768Z,84.87
2023-01-23T02:20:42.318Z,84.71
2023-01-23T02:23:44.457Z,84.79
2023-01-23T02:26:44.233Z,84.61
2023-01-23T02:29:45.192Z,84.88
2023-01-23T02:32:35.906Z,84.60
2023-01-23T02:35:29.242Z,84.51
2023-01-23T02:38:31.541Z,84.92
2023-01-23T02:41:27.086Z,84.50
2023-01-23T02:44:26.357Z,84.94
2023-01-23T02:47:19.101Z,84.65
2023-01-23T02:50:09.485Z,84.69
2023-01-23T02:52:59.230Z,84.71
2023-01-23T02:55:48.488Z,84.91
2023-01-23T02:58:55.410Z,85.10
2023-01-23T03:01:46.201Z,84.78
2023-01-23T03:04:35.706Z,85.21
2023-01-23T03:07:24.931Z,85.31
2023-01-23T03:10:14.607Z,85.30
2023-01-23T03:13:09.340Z,84.78
2023-01-23T03:15:58.696Z,84.56
2023-01-23T03:18:54.702Z,84.33
2023-01-23T03:21:45.119Z,84.37
2023-01-23T03:24:36.408Z,84.03
2023-01-23T03:27:25.899Z,84.00
2023-01-23T03:30:20.512Z,84.11
2023-01-23T03:33:11.169Z,83.83
2023-01-23T03:36:02.437Z,84.04
2023-01-23T03:39:09.026Z,83.89
2023-01-23T03:41:58.676Z,84.18
2023-01-23T03:44:53.207Z,84.13
2023-01-23T03:47:46.399Z,84.18
2023-01-23T03:50:35.585Z,84.16
2023-01-23T03:53:26.434Z,84.03
2023-01-23T03:56:15.944Z,83.93
2023-01-23T03:59:05.900Z,84.13
2023-01-23T04:01:58.166Z,84.25
2023-01-23T04:04:47.622Z,84.41
2023-01-23T04:07:37.006Z,84.27
2023-01-23T04:10:27.844Z,84.30
2023-01-23T04:13:22.910Z,84.20
2023-01-23T04:16:12.423Z,84.42
2023-01-23T04:19:01.713Z,84.16
2023-01-23T04:21:51.668Z,84.34
2023-01-23T04:24:41.788Z,84.19
2023-01-23T04:27:33.248Z,84.35
2023-01-23T04:30:23.813Z,84.23
2023-01-23T04:33:13.880Z,84.39
2023-01-23T04:36:07.496Z,84.76
2023-01-23T04:38:57.308Z,84.83
2023-01-23T04:41:48.983Z,84.82
2023-01-23T04:44:59.842Z,84.61
2023-01-23T04:48:11.850Z,84.69
2023-01-23T04:51:01.180Z,84.71
2023-01-23T04:53:50.829Z,84.75
2023-01-23T04:56:40.100Z,85.09
2023-01-23T04:59:32.150Z,84.88
2023-01-23T05:02:22.946Z,85.07
2023-01-23T05:05:12.822Z,84.73
2023-01-23T05:08:02.427Z,84.84
2023-01-23T05:10:52.474Z,85.13
2023-01-23T05:13:42.726Z,85.06
2023-01-23T05:16:31.998Z,84.82
2023-01-23T05:19:45.454Z,85.21
2023-01-23T05:22:34.795Z,85.19
2023-01-23T05:25:27.723Z,84.96
2023-01-23T05:28:18.795Z,84.95
2023-01-23T05:31:13.485Z,85.35
2023-01-23T05:34:09.935Z,85.37
2023-01-23T05:37:03.764Z,85.50
2023-01-23T05:39:56.711Z,85.11
2023-01-23T05:42:48.171Z,85.43
2023-01-23T05:46:00.673Z,85.31
2023-01-23T05:49:10.395Z,85.34
2023-01-23T05:51:59.959Z,85.12
2023-01-23T05:54:51.180Z,85.50
2023-01-23T05:57:41.344Z,85.15
2023-01-23T06:00:49.243Z,85.32
2023-01-23T06:04:04.170Z,85.23
2023-01-23T06:07:15.925Z,85.32
2023-01-23T06:10:09.918Z,85.55
2023-01-23T06:12:59.579Z,85.34
2023-01-23T06:15:48.971Z,85.25
2023-01-23T06:18:40.286Z,85.66
2023-01-23T06:21:30.447Z,85.74
2023-01-23T06:24:20.854Z,85.58
2023-01-23T06:27:12.670Z,85.59
2023-01-23T06:30:02.036Z,85.43
2023-01-23T06:32:51.441Z,85.83
2023-01-23T06:35:46.773Z,85.57
2023-01-23T06:38:36.763Z,85.91
2023-01-23T06:41:29.498Z,85.57
2023-01-23T06:44:25.402Z,85.91
2023-01-23T06:47:16.987Z,85.85
2023-01-23T06:50:12.127Z,86.02
2023-01-23T06:53:01.892Z,85.73
2023-01-23T06:55:51.472Z,85.98
2023-01-23T06:58:41.095Z,85.83
2023-01-23T07:01:41.282Z,86.03
2023-01-23T07:04:42.279Z,86.06
2023-01-23T07:07:33.739Z,86.07
2023-01-23T07:10:24.076Z,86.03
2023-01-23T07:13:14.055Z,85.86
2023-01-23T07:16:03.481Z,86.15
2023-01-23T07:18:54.312Z,85.92
2023-01-23T07:21:43.687Z,86.07
2023-01-23T07:24:33.178Z,86.03
2023-01-23T07:27:22.737Z,86.14
2023-01-23T07:30:13.564Z,85.88
2023-01-23T07:33:03.083Z,85.87
2023-01-23T07:35:53.744Z,86.20
2023-01-23T07:38:43.064Z,86.38
2023-01-23T07:41:32.334Z,86.24
2023-01-23T07:44:25.228Z,86.71
2023-01-23T07:47:14.381Z,86.58
2023-01-23T07:50:03.975Z,86.18
2023-01-23T07:52:56.836Z,86.15
2023-01-23T07:55:46.257Z,86.38
2023-01-23T07:58:35.677Z,86.40
2023-01-23T08:01:24.892Z,86.25
2023-01-23T08:04:14.264Z,86.51
2023-01-23T08:07:03.589Z,86.39
2023-01-23T08:09:54.308Z,86.24
2023-01-23T08:12:43.563Z,86.41
2023-01-23T08:15:32.770Z,86.44
2023-01-23T08:18:22.200Z,86.38
2023-01-23T08:21:11.975Z,86.75
2023-01-23T08:24:04.967Z,86.45
2023-01-23T08:26:55.545Z,86.68
2023-01-23T08:29:45.052Z,86.51
2023-01-23T08:32:36.408Z,86.66
2023-01-23T08:35:25.602Z,86.50
2023-01-23T08:38:14.876Z,86.50
2023-01-23T08:41:05.230Z,86.61
2023-01-23T08:43:57.615Z,86.61
2023-01-23T08:46:47.525Z,86.79
2023-01-23T08:49:36.855Z,86.43
2023-01-23T08:52:26.176Z,86.96
2023-01-23T08:55:15.595Z,86.86
2023-01-23T08:58:05.023Z,86.53
2023-01-23T09:00:55.842Z,86.77
2023-01-23T09:03:45.613Z,86.48
2023-01-23T09:06:35.015Z,86.74
2023-01-23T09:09:24.246Z,86.82
2023-01-23T09:12:13.547Z,86.63
2023-01-23T09:15:02.830Z,86.76
2023-01-23T09:17:53.478Z,86.66
2023-01-23T09:20:42.755Z,86.94
2023-01-23T09:23:31.914Z,86.99
2023-01-23T09:26:21.194Z,87.06
2023-01-23T09:29:10.591Z,87.12
2023-01-23T09:31:59.838Z,87.36
2023-01-23T09:34:50.525Z,87.28
2023-01-23T09:37:59.926Z,87.23
2023-01-23T09:40:52.925Z,87.25
2023-01-23T09:43:51.053Z,87.38
2023-01-23T09:46:47.785Z,87.39
2023-01-23T09:49:48.405Z,87.13
2023-01-23T09:52:46.002Z,87.49
2023-01-23T09:55:44.159Z,87.63
2023-01-23T09:58:40.620Z,87.40
2023-01-23T10:01:32.869Z,87.57
2023-01-23T10:04:23.569Z,87.52
2023-01-23T10:08:07.007Z,87.15
2023-01-23T10:11:00.478Z,87.38
2023-01-23T10:14:03.757Z,87.55
2023-01-23T10:17:05.852Z,87.71
2023-01-23T10:20:21.564Z,87.55
2023-01-23T10:23:27.740Z,87.72
2023-01-23T10:26:23.382Z,88.04
2023-01-23T10:29:22.064Z,88.04
2023-01-23T10:32:25.976Z,87.83
2023-01-23T10:35:21.464Z,87.92
2023-01-23T10:38:28.027Z,87.99
2023-01-23T10:41:21.795Z,88.14
2023-01-23T10:44:17.722Z,88.42
2023-01-23T10:47:19.262Z,87.95
2023-01-23T10:50:09.282Z,87.84
2023-01-23T10:53:09.183Z,87.42
2023-01-23T10:56:02.520Z,87.30
2023-01-23T10:58:56.354Z,87.35
2023-01-23T11:02:03.864Z,86.97
2023-01-23T11:04:53.477Z,86.93
2023-01-23T11:07:42.879Z,86.87
2023-01-23T11:10:32.367Z,86.77
2023-01-23T11:13:31.240Z,86.99
2023-01-23T11:16:23.534Z,87.32
2023-01-23T11:19:24.085Z,85.93
2023-01-23T11:22:30.105Z,86.08
2023-01-23T11:25:31.680Z,85.55
2023-01-23T11:28:27.071Z,86.09
2023-01-23T11:31:22.555Z,86.09
2023-01-23T11:34:16.052Z,86.26
2023-01-23T11:37:14.296Z,86.27
2023-01-23T11:40:08.687Z,85.92
2023-01-23T11:42:58.098Z,86.23
2023-01-23T11:46:11.079Z,85.95
2023-01-23T11:49:20.049Z,86.02
2023-01-23T11:52:29.740Z,85.58
2023-01-23T11:55:53.435Z,85.53
2023-01-23T11:59:01.133Z,85.25
2023-01-23T12:02:14.296Z,85.51
2023-01-23T12:06:18.882Z,84.52
2023-01-23T12:09:15.956Z,84.76
2023-01-23T12:12:16.422Z,85.06
2023-01-23T12:15:16.770Z,85.36
2023-01-23T12:18:24.106Z,84.68
2023-01-23T12:21:20.041Z,84.86
2023-01-23T12:24:22.463Z,84.28
2023-01-23T12:27:23.260Z,83.91
2023-01-23T12:30:50.390Z,83.79
2023-01-23T12:33:59.301Z,84.10
2023-01-23T12:37:19.273Z,83.88
2023-01-23T12:40:24.148Z,82.50
2023-01-23T12:43:19.970Z,82.50
2023-01-23T12:46:15.207Z,83.40
2023-01-23T12:49:26.415Z,82.09
2023-01-23T12:52:23.669Z,80.74
2023-01-23T12:55:22.705Z,78.50
2023-01-23T12:58:18.405Z,79.61
2023-01-23T13:01:21.837Z,79.51
2023-01-23T13:04:24.942Z,75.92
2023-01-23T13:07:40.100Z,77.56
2023-01-23T13:11:18.098Z,76.92
2023-01-23T13:14:19.241Z,76.41
2023-01-23T13:17:36.595Z,76.44
2023-01-23T13:20:48.493Z,76.74
2023-01-23T13:23:38.023Z,77.91
2023-01-23T13:26:32.670Z,78.29
2023-01-23T13:29:50.377Z,74.97
2023-01-23T13:32:39.572Z,75.47
2023-01-23T13:35:59.330Z,73.15
2023-01-23T13:39:23.220Z,74.28
2023-01-23T13:42:47.153Z,73.00
2023-01-23T13:45:37.753Z,72.97
2023-01-23T14:21:56.919Z,72.41
2023-01-23T14:24:50.034Z,72.98
2023-01-23T14:27:52.294Z,72.96
2023-01-23T14:30:56.191Z,73.71
2023-01-23T14:33:46.532Z,73.63
2023-01-23T14:36:39.040Z,74.39
2023-01-23T14:39:31.545Z,77.13
2023-01-23T14:42:27.477Z,77.50
2023-01-23T14:45:17.090Z,79.73
2023-01-23T14:48:15.021Z,78.52
2023-01-23T14:51:11.336Z,80.34
2023-01-23T14:54:03.162Z,81.52
2023-01-23T14:56:54.250Z,83.26
2023-01-23T14:59:45.713Z,83.80
2023-01-23T15:02:36.604Z,84.08
2023-01-23T15:05:29.374Z,84.88
2023-01-23T15:08:23.932Z,84.34
2023-01-23T15:11:13.492Z,85.20
2023-01-23T15:14:03.739Z,86.65
2023-01-23T15:16:59.758Z,86.61
2023-01-23T15:19:55.425Z,86.22
2023-01-23T15:22:46.128Z,86.85
2023-01-23T15:25:35.495Z,86.97
2023-01-23T15:28:33.115Z,85.87
2023-01-23T15:31:29.805Z,85.94
2023-01-23T15:34:27.018Z,86.10
2023-01-23T15:37:25.656Z,85.55
2023-01-23T15:40:26.109Z,86.26
2023-01-23T15:43:20.569Z,86.90
2023-01-23T15:46:12.078Z,86.61
2023-01-23T15:49:01.380Z,86.81
2023-01-23T15:51:51.098Z,85.79
2023-01-23T15:54:40.553Z,87.08
2023-01-23T15:57:31.301Z,86.46
2023-01-23T16:00:25.791Z,86.50
2023-01-23T16:03:15.286Z,86.52
2023-01-23T16:06:06.296Z,86.20
2023-01-23T16:09:05.120Z,86.12
2023-01-23T16:11:55.114Z,86.18
2023-01-23T16:14:46.413Z,85.92
2023-01-23T16:17:36.929Z,85.77
2023-01-23T16:20:30.936Z,86.14
2023-01-23T16:23:24.869Z,85.98
2023-01-23T16:26:21.092Z,85.89
2023-01-23T16:29:26.323Z,85.27
2023-01-23T16:32:17.543Z,85.76
2023-01-23T16:35:08.496Z,85.36
2023-01-23T16:37:57.896Z,85.49
2023-01-23T16:40:47.294Z,85.46
2023-01-23T16:43:36.893Z,85.36
2023-01-23T16:46:26.281Z,85.14
2023-01-23T16:49:17.184Z,84.94
2023-01-23T16:52:06.829Z,85.85
2023-01-23T16:54:56.607Z,85.41
2023-01-23T16:57:46.176Z,85.78
2023-01-23T17:00:36.705Z,85.76
2023-01-23T17:03:31.455Z,85.56
2023-01-23T17:06:22.089Z,85.76
2023-01-23T17:09:12.944Z,85.83
2023-01-23T17:12:02.133Z,86.05
2023-01-23T17:14:53.076Z,85.97
2023-01-23T17:17:42.223Z,86.14
2023-01-23T17:20:31.441Z,85.92
2023-01-23T17:23:22.160Z,86.02
2023-01-23T17:26:18.567Z,85.74
2023-01-23T17:29:07.755Z,85.69
2023-01-23T17:31:57.751Z,86.12
2023-01-23T17:34:50.301Z,85.75
2023-01-23T17:37:40.583Z,86.05
2023-01-23T17:40:32.037Z,85.97
2023-01-23T17:43:23.446Z,85.42
2023-01-23T17:46:26.970Z,85.76
2023-01-23T17:49:30.565Z,85.81
2023-01-23T17:52:21.818Z,86.53
2023-01-23T17:55:15.886Z,86.83
2023-01-23T17:58:06.578Z,86.88
2023-01-23T18:00:56.228Z,86.44
2023-01-23T18:03:45.657Z,86.32
2023-01-23T18:06:34.966Z,86.78
2023-01-23T18:09:24.481Z,87.27
2023-01-23T18:12:19.284Z,87.49
2023-01-23T18:15:16.764Z,87.00
2023-01-23T18:18:22.460Z,87.31
2023-01-23T18:21:18.023Z,86.93
2023-01-23T18:24:11.932Z,86.93
2023-01-23T18:27:11.834Z,87.13
2023-01-23T18:30:21.083Z,87.28
2023-01-23T18:33:29.674Z,87.03
2023-01-23T18:36:37.283Z,86.74
2023-01-23T18:40:05.647Z,86.59
2023-01-23T18:43:02.948Z,86.67
2023-01-23T18:45:57.644Z,86.08
2023-01-23T18:48:49.647Z,86.43
2023-01-23T18:51:47.311Z,86.48
2023-01-23T18:54:45.426Z,86.61
2023-01-23T18:57:55.542Z,85.78
2023-01-23T19:00:51.151Z,85.84
2023-01-23T19:03:46.676Z,86.11
2023-01-23T19:06:37.377Z,85.98
2023-01-23T19:09:28.842Z,85.53
2023-01-23T19:12:28.327Z,85.81
2023-01-23T19:15:29.088Z,85.56
2023-01-23T19:18:48.497Z,85.36
2023-01-23T19:21:38.159Z,85.76
2023-01-23T19:24:28.469Z,85.63
2023-01-23T19:27:24.845Z,85.30
2023-01-23T19:30:15.833Z,85.72
2023-01-23T19:33:04.995Z,85.72
2023-01-23T19:35:56.721Z,85.36
2023-01-23T19:38:46.069Z,85.42
2023-01-23T19:41:43.091Z,84.88
2023-01-23T19:44:33.297Z,85.18
2023-01-23T19:47:22.594Z,85.11
2023-01-23T19:50:16.748Z,84.80
2023-01-23T19:53:07.365Z,84.84
2023-01-23T19:56:01.392Z,84.41
2023-01-23T19:58:51.267Z,84.74
2023-01-23T20:01:43.680Z,84.18
2023-01-23T20:04:33.035Z,84.30
2023-01-23T20:07:22.676Z,84.30
2023-01-23T20:10:14.288Z,83.94
2023-01-23T20:13:03.452Z,83.85
2023-01-23T20:15:52.664Z,83.57
2023-01-23T20:18:42.550Z,83.99
2023-01-23T20:21:31.999Z,83.70
2023-01-23T20:24:21.357Z,83.30
2023-01-23T20:27:12.040Z,83.39
2023-01-23T20:30:02.613Z,82.85
2023-01-23T20:32:52.049Z,82.93
2023-01-23T20:35:41.296Z,82.47
2023-01-23T20:38:30.742Z,82.34
2023-01-23T20:41:22.289Z,82.50
2023-01-23T20:44:13.004Z,81.95
2023-01-23T20:47:02.252Z,82.55
2023-01-23T20:49:51.531Z,82.30
2023-01-23T20:52:57.904Z,82.18
2023-01-23T20:55:47.113Z,82.29
2023-01-23T20:58:56.207Z,82.35
2023-01-23T21:02:05.347Z,82.43
2023-01-23T21:04:54.837Z,82.62
2023-01-23T21:07:44.044Z,82.57
2023-01-23T21:10:33.757Z,82.48
2023-01-23T21:13:23.274Z,82.49
2023-01-23T21:16:15.936Z,82.88
2023-01-23T21:19:06.714Z,82.85
2023-01-23T21:21:55.931Z,82.67
2023-01-23T21:24:45.218Z,82.92
2023-01-23T21:27:34.456Z,82.36
2023-01-23T21:30:23.734Z,82.70
2023-01-23T21:33:12.983Z,82.30
2023-01-23T21:36:03.657Z,82.33
2023-01-23T21:39:14.372Z,82.48
2023-01-23T21:42:03.634Z,82.95
2023-01-23T21:44:55.202Z,82.46
2023-01-23T21:47:44.559Z,82.81
2023-01-23T21:50:33.944Z,82.83
2023-01-23T21:53:24.964Z,82.25
2023-01-23T21:56:16.343Z,82.17
2023-01-23T21:59:05.953Z,82.47
2023-01-23T22:01:54.407Z,82.01
2023-01-23T22:04:43.669Z,82.17
2023-01-23T22:07:33.031Z,81.97
2023-01-23T22:10:23.657Z,81.88
2023-01-23T22:13:14.222Z,82.00
2023-01-23T22:16:04.616Z,82.14
2023-01-23T22:18:53.993Z,82.33
2023-01-23T22:21:43.864Z,82.37
2023-01-23T22:24:33.145Z,82.03
2023-01-23T22:27:24.223Z,81.86
2023-01-23T22:30:14.820Z,81.89
2023-01-23T22:33:04.020Z,81.81
2023-01-23T22:35:53.287Z,81.89
2023-01-23T22:38:42.565Z,81.97
2023-01-23T22:41:31.794Z,81.84
2023-01-23T22:44:22.479Z,81.65
2023-01-23T22:47:11.979Z,81.96
2023-01-23T22:50:01.355Z,81.78
2023-01-23T22:52:50.718Z,81.55
2023-01-23T22:55:39.909Z,81.65
2023-01-23T22:58:30.262Z,82.09
2023-01-23T23:01:25.388Z,81.69
2023-01-23T23:04:14.600Z,81.27
2023-01-23T23:07:03.955Z,81.38
2023-01-23T23:09:53.290Z,81.09
2023-01-23T23:12:42.544Z,81.39
2023-01-23T23:15:31.805Z,81.12
2023-01-23T23:18:22.497Z,81.58
2023-01-23T23:21:15.005Z,82.13
2023-01-23T23:24:07.011Z,82.20
2023-01-23T23:26:56.439Z,82.38
2023-01-23T23:29:45.699Z,82.17
2023-01-23T23:32:35.047Z,82.37
2023-01-23T23:35:25.653Z,82.08
2023-01-23T23:38:15.635Z,81.88
2023-01-23T23:41:08.073Z,82.30
2023-01-23T23:43:57.392Z,82.23
2023-01-23T23:46:46.687Z,82.14
2023-01-23T23:49:35.941Z,82.25
2023-01-23T23:52:26.680Z,82.15
2023-01-23T23:55:16.352Z,82.01
2023-01-23T23:58:05.695Z,81.97
